sensor_id;sensor_type;location;lat;lon;timestamp;P1;durP1;ratioP1;P2;durP2;ratioP2
66087;SDS011;52872;52.994;6.940;2022-09-13T00:01:09;17.17;;;15.38;;
66087;SDS011;52872;52.994;6.940;2022-09-13T00:03:36;15.93;;;13.38;;
66087;SDS011;52872;52.994;6.940;2022-09-13T00:06:16;13.90;;;12.48;;
66087;SDS011;52872;52.994;6.940;2022-09-13T00:08:44;14.25;;;12.77;;
66087;SDS011;52872;52.994;6.940;2022-09-13T00:11:22;12.90;;;11.23;;
66087;SDS011;52872;52.994;6.940;2022-09-13T00:13:51;12.82;;;11.40;;
66087;SDS011;52872;52.994;6.940;2022-09-13T00:16:19;11.13;;;10.00;;
66087;SDS011;52872;52.994;6.940;2022-09-13T00:18:48;12.20;;;10.93;;
66087;SDS011;52872;52.994;6.940;2022-09-13T00:21:16;15.43;;;12.30;;
66087;SDS011;52872;52.994;6.940;2022-09-13T00:23:50;12.57;;;11.38;;
66087;SDS011;52872;52.994;6.940;2022-09-13T00:26:20;11.63;;;10.43;;
66087;SDS011;52872;52.994;6.940;2022-09-13T00:28:49;13.27;;;11.98;;
66087;SDS011;52872;52.994;6.940;2022-09-13T00:31:22;13.13;;;12.02;;
66087;SDS011;52872;52.994;6.940;2022-09-13T00:33:50;13.73;;;12.43;;
66087;SDS011;52872;52.994;6.940;2022-09-13T00:36:18;13.70;;;12.18;;
66087;SDS011;52872;52.994;6.940;2022-09-13T00:38:45;14.07;;;11.57;;
66087;SDS011;52872;52.994;6.940;2022-09-13T00:41:13;14.05;;;12.75;;
66087;SDS011;52872;52.994;6.940;2022-09-13T00:46:20;12.57;;;11.38;;
66087;SDS011;52872;52.994;6.940;2022-09-13T00:48:48;13.85;;;12.43;;
66087;SDS011;52872;52.994;6.940;2022-09-13T00:51:18;14.10;;;12.57;;
66087;SDS011;52872;52.994;6.940;2022-09-13T00:53:47;16.63;;;13.60;;
66087;SDS011;52872;52.994;6.940;2022-09-13T00:56:19;15.75;;;13.73;;
66087;SDS011;52872;52.994;6.940;2022-09-13T00:58:54;15.68;;;13.93;;
66087;SDS011;52872;52.994;6.940;2022-09-13T01:01:32;17.48;;;15.50;;
66087;SDS011;52872;52.994;6.940;2022-09-13T01:04:05;15.85;;;14.27;;
66087;SDS011;52872;52.994;6.940;2022-09-13T01:06:37;16.20;;;14.52;;
66087;SDS011;52872;52.994;6.940;2022-09-13T01:09:06;22.20;;;15.98;;
66087;SDS011;52872;52.994;6.940;2022-09-13T01:14:16;17.67;;;15.38;;
66087;SDS011;52872;52.994;6.940;2022-09-13T01:16:45;18.83;;;15.23;;
66087;SDS011;52872;52.994;6.940;2022-09-13T01:19:13;19.83;;;14.93;;
66087;SDS011;52872;52.994;6.940;2022-09-13T01:33:42;19.58;;;15.77;;
66087;SDS011;52872;52.994;6.940;2022-09-13T01:52:58;13.98;;;11.98;;
66087;SDS011;52872;52.994;6.940;2022-09-13T01:55:33;14.05;;;12.52;;
66087;SDS011;52872;52.994;6.940;2022-09-13T01:58:43;15.10;;;13.68;;
66087;SDS011;52872;52.994;6.940;2022-09-13T02:01:13;13.65;;;12.25;;
66087;SDS011;52872;52.994;6.940;2022-09-13T02:03:47;15.70;;;14.02;;
66087;SDS011;52872;52.994;6.940;2022-09-13T02:06:44;15.90;;;14.30;;
66087;SDS011;52872;52.994;6.940;2022-09-13T02:09:16;17.05;;;15.35;;
66087;SDS011;52872;52.994;6.940;2022-09-13T02:11:48;19.52;;;17.40;;
66087;SDS011;52872;52.994;6.940;2022-09-13T02:15:20;18.20;;;16.25;;
66087;SDS011;52872;52.994;6.940;2022-09-13T02:17:23;18.42;;;15.82;;
66087;SDS011;52872;52.994;6.940;2022-09-13T02:19:54;19.58;;;17.40;;
66087;SDS011;52872;52.994;6.940;2022-09-13T02:22:24;21.27;;;18.98;;
66087;SDS011;52872;52.994;6.940;2022-09-13T02:25:08;20.38;;;17.50;;
66087;SDS011;52872;52.994;6.940;2022-09-13T02:27:39;23.52;;;19.92;;
66087;SDS011;52872;52.994;6.940;2022-09-13T02:30:10;19.50;;;17.50;;
66087;SDS011;52872;52.994;6.940;2022-09-13T02:32:39;22.55;;;17.63;;
66087;SDS011;52872;52.994;6.940;2022-09-13T02:35:18;18.90;;;16.88;;
66087;SDS011;52872;52.994;6.940;2022-09-13T02:37:49;21.88;;;19.17;;
66087;SDS011;52872;52.994;6.940;2022-09-13T02:40:24;22.50;;;18.30;;
66087;SDS011;52872;52.994;6.940;2022-09-13T02:42:57;21.30;;;18.52;;
66087;SDS011;52872;52.994;6.940;2022-09-13T02:45:31;22.63;;;19.38;;
66087;SDS011;52872;52.994;6.940;2022-09-13T02:48:28;27.15;;;20.63;;
66087;SDS011;52872;52.994;6.940;2022-09-13T02:54:22;23.75;;;19.30;;
66087;SDS011;52872;52.994;6.940;2022-09-13T02:59:46;22.08;;;19.58;;
66087;SDS011;52872;52.994;6.940;2022-09-13T03:02:15;21.70;;;19.40;;
66087;SDS011;52872;52.994;6.940;2022-09-13T03:04:44;25.50;;;19.45;;
66087;SDS011;52872;52.994;6.940;2022-09-13T03:07:12;25.08;;;20.73;;
66087;SDS011;52872;52.994;6.940;2022-09-13T03:09:41;23.38;;;19.90;;
66087;SDS011;52872;52.994;6.940;2022-09-13T03:20:49;23.70;;;20.33;;
66087;SDS011;52872;52.994;6.940;2022-09-13T03:31:35;30.70;;;22.67;;
66087;SDS011;52872;52.994;6.940;2022-09-13T03:34:28;25.40;;;22.67;;
66087;SDS011;52872;52.994;6.940;2022-09-13T03:37:05;27.17;;;20.83;;
66087;SDS011;52872;52.994;6.940;2022-09-13T03:39:54;30.05;;;24.33;;
66087;SDS011;52872;52.994;6.940;2022-09-13T03:42:27;27.95;;;22.17;;
66087;SDS011;52872;52.994;6.940;2022-09-13T03:45:08;26.17;;;22.15;;
66087;SDS011;52872;52.994;6.940;2022-09-13T03:47:39;29.08;;;22.95;;
66087;SDS011;52872;52.994;6.940;2022-09-13T03:50:08;28.38;;;22.20;;
66087;SDS011;52872;52.994;6.940;2022-09-13T03:52:39;29.40;;;22.92;;
66087;SDS011;52872;52.994;6.940;2022-09-13T03:55:11;30.08;;;23.38;;
66087;SDS011;52872;52.994;6.940;2022-09-13T03:57:38;27.42;;;22.15;;
66087;SDS011;52872;52.994;6.940;2022-09-13T04:00:05;31.23;;;24.25;;
66087;SDS011;52872;52.994;6.940;2022-09-13T04:02:36;28.02;;;23.02;;
66087;SDS011;52872;52.994;6.940;2022-09-13T04:05:03;30.05;;;24.05;;
66087;SDS011;52872;52.994;6.940;2022-09-13T04:07:31;27.45;;;22.25;;
66087;SDS011;52872;52.994;6.940;2022-09-13T04:09:58;29.88;;;22.08;;
66087;SDS011;52872;52.994;6.940;2022-09-13T04:12:25;27.70;;;21.20;;
66087;SDS011;52872;52.994;6.940;2022-09-13T04:14:53;28.25;;;22.50;;
66087;SDS011;52872;52.994;6.940;2022-09-13T04:17:20;26.40;;;20.95;;
66087;SDS011;52872;52.994;6.940;2022-09-13T04:19:47;30.02;;;21.70;;
66087;SDS011;52872;52.994;6.940;2022-09-13T04:22:14;28.63;;;22.75;;
66087;SDS011;52872;52.994;6.940;2022-09-13T04:24:42;29.58;;;22.52;;
66087;SDS011;52872;52.994;6.940;2022-09-13T04:27:09;27.73;;;20.83;;
66087;SDS011;52872;52.994;6.940;2022-09-13T04:29:37;28.10;;;20.90;;
66087;SDS011;52872;52.994;6.940;2022-09-13T04:32:04;31.05;;;21.98;;
66087;SDS011;52872;52.994;6.940;2022-09-13T04:34:31;26.50;;;21.13;;
66087;SDS011;52872;52.994;6.940;2022-09-13T04:36:58;28.85;;;21.30;;
66087;SDS011;52872;52.994;6.940;2022-09-13T04:39:25;25.70;;;20.50;;
66087;SDS011;52872;52.994;6.940;2022-09-13T04:41:52;24.98;;;20.13;;
66087;SDS011;52872;52.994;6.940;2022-09-13T04:44:20;27.75;;;21.00;;
66087;SDS011;52872;52.994;6.940;2022-09-13T04:46:49;31.17;;;22.92;;
66087;SDS011;52872;52.994;6.940;2022-09-13T04:49:17;27.40;;;21.42;;
66087;SDS011;52872;52.994;6.940;2022-09-13T04:51:45;26.15;;;20.25;;
66087;SDS011;52872;52.994;6.940;2022-09-13T04:54:12;25.90;;;20.13;;
66087;SDS011;52872;52.994;6.940;2022-09-13T04:56:42;26.73;;;20.92;;
66087;SDS011;52872;52.994;6.940;2022-09-13T04:59:10;27.48;;;20.58;;
66087;SDS011;52872;52.994;6.940;2022-09-13T05:01:37;29.67;;;22.60;;
66087;SDS011;52872;52.994;6.940;2022-09-13T05:04:05;24.83;;;19.73;;
66087;SDS011;52872;52.994;6.940;2022-09-13T05:06:33;28.42;;;22.02;;
66087;SDS011;52872;52.994;6.940;2022-09-13T05:09:00;26.52;;;20.52;;
66087;SDS011;52872;52.994;6.940;2022-09-13T05:11:28;24.90;;;18.85;;
66087;SDS011;52872;52.994;6.940;2022-09-13T05:13:56;25.95;;;21.73;;
66087;SDS011;52872;52.994;6.940;2022-09-13T05:16:26;23.38;;;19.25;;
66087;SDS011;52872;52.994;6.940;2022-09-13T05:18:54;31.55;;;20.23;;
66087;SDS011;52872;52.994;6.940;2022-09-13T05:21:22;24.55;;;21.10;;
66087;SDS011;52872;52.994;6.940;2022-09-13T05:23:50;26.75;;;19.60;;
66087;SDS011;52872;52.994;6.940;2022-09-13T05:26:17;26.45;;;18.35;;
66087;SDS011;52872;52.994;6.940;2022-09-13T05:28:45;22.30;;;18.17;;
66087;SDS011;52872;52.994;6.940;2022-09-13T05:33:41;20.40;;;16.67;;
66087;SDS011;52872;52.994;6.940;2022-09-13T05:36:08;16.42;;;14.57;;
66087;SDS011;52872;52.994;6.940;2022-09-13T05:38:35;17.98;;;15.50;;
66087;SDS011;52872;52.994;6.940;2022-09-13T05:41:02;21.25;;;15.77;;
66087;SDS011;52872;52.994;6.940;2022-09-13T05:43:31;19.23;;;14.73;;
66087;SDS011;52872;52.994;6.940;2022-09-13T05:46:03;16.48;;;13.98;;
66087;SDS011;52872;52.994;6.940;2022-09-13T05:48:31;15.73;;;12.48;;
66087;SDS011;52872;52.994;6.940;2022-09-13T05:53:56;13.50;;;11.02;;
66087;SDS011;52872;52.994;6.940;2022-09-13T05:56:26;13.95;;;11.52;;
66087;SDS011;52872;52.994;6.940;2022-09-13T05:58:54;14.43;;;11.77;;
66087;SDS011;52872;52.994;6.940;2022-09-13T06:01:22;15.63;;;11.98;;
66087;SDS011;52872;52.994;6.940;2022-09-13T06:03:51;14.38;;;12.77;;
66087;SDS011;52872;52.994;6.940;2022-09-13T06:06:20;15.30;;;11.13;;
66087;SDS011;52872;52.994;6.940;2022-09-13T06:08:51;12.43;;;10.50;;
66087;SDS011;52872;52.994;6.940;2022-09-13T06:11:22;13.55;;;10.50;;
66087;SDS011;52872;52.994;6.940;2022-09-13T06:13:51;14.18;;;10.13;;
66087;SDS011;52872;52.994;6.940;2022-09-13T06:16:18;10.90;;;9.80;;
66087;SDS011;52872;52.994;6.940;2022-09-13T06:18:46;11.38;;;9.45;;
66087;SDS011;52872;52.994;6.940;2022-09-13T06:21:14;9.27;;;7.32;;
66087;SDS011;52872;52.994;6.940;2022-09-13T06:23:44;8.80;;;7.63;;
66087;SDS011;52872;52.994;6.940;2022-09-13T06:26:17;12.20;;;8.20;;
66087;SDS011;52872;52.994;6.940;2022-09-13T06:28:49;8.68;;;6.40;;
66087;SDS011;52872;52.994;6.940;2022-09-13T06:31:18;7.80;;;6.63;;
66087;SDS011;52872;52.994;6.940;2022-09-13T06:33:46;9.43;;;6.97;;
66087;SDS011;52872;52.994;6.940;2022-09-13T06:36:14;8.88;;;6.80;;
66087;SDS011;52872;52.994;6.940;2022-09-13T06:38:44;7.97;;;6.35;;
66087;SDS011;52872;52.994;6.940;2022-09-13T06:41:13;7.35;;;5.32;;
66087;SDS011;52872;52.994;6.940;2022-09-13T06:43:53;5.70;;;4.60;;
66087;SDS011;52872;52.994;6.940;2022-09-13T06:46:23;5.43;;;3.80;;
66087;SDS011;52872;52.994;6.940;2022-09-13T06:48:51;5.38;;;4.22;;
66087;SDS011;52872;52.994;6.940;2022-09-13T06:51:19;5.93;;;3.95;;
66087;SDS011;52872;52.994;6.940;2022-09-13T06:53:50;5.75;;;3.92;;
66087;SDS011;52872;52.994;6.940;2022-09-13T06:56:19;3.72;;;3.42;;
66087;SDS011;52872;52.994;6.940;2022-09-13T06:58:51;5.53;;;5.03;;
66087;SDS011;52872;52.994;6.940;2022-09-13T07:01:25;5.05;;;3.65;;
66087;SDS011;52872;52.994;6.940;2022-09-13T07:03:57;7.55;;;2.83;;
66087;SDS011;52872;52.994;6.940;2022-09-13T07:06:29;3.75;;;2.97;;
66087;SDS011;52872;52.994;6.940;2022-09-13T07:09:01;3.43;;;3.20;;
66087;SDS011;52872;52.994;6.940;2022-09-13T07:11:31;2.85;;;2.47;;
66087;SDS011;52872;52.994;6.940;2022-09-13T07:14:03;5.20;;;3.03;;
66087;SDS011;52872;52.994;6.940;2022-09-13T07:16:32;4.43;;;2.65;;
66087;SDS011;52872;52.994;6.940;2022-09-13T07:19:02;3.83;;;2.40;;
66087;SDS011;52872;52.994;6.940;2022-09-13T07:21:32;4.35;;;2.97;;
66087;SDS011;52872;52.994;6.940;2022-09-13T07:24:00;4.35;;;2.42;;
66087;SDS011;52872;52.994;6.940;2022-09-13T07:26:27;3.85;;;3.05;;
66087;SDS011;52872;52.994;6.940;2022-09-13T07:28:55;3.50;;;2.72;;
66087;SDS011;52872;52.994;6.940;2022-09-13T07:31:24;3.83;;;3.03;;
66087;SDS011;52872;52.994;6.940;2022-09-13T07:33:55;5.00;;;2.88;;
66087;SDS011;52872;52.994;6.940;2022-09-13T07:36:26;5.38;;;2.58;;
66087;SDS011;52872;52.994;6.940;2022-09-13T07:38:55;5.25;;;2.20;;
66087;SDS011;52872;52.994;6.940;2022-09-13T07:41:25;2.75;;;2.10;;
66087;SDS011;52872;52.994;6.940;2022-09-13T07:43:53;6.07;;;1.77;;
66087;SDS011;52872;52.994;6.940;2022-09-13T07:46:22;3.38;;;1.58;;
66087;SDS011;52872;52.994;6.940;2022-09-13T07:48:51;6.07;;;1.75;;
66087;SDS011;52872;52.994;6.940;2022-09-13T07:51:21;5.68;;;2.13;;
66087;SDS011;52872;52.994;6.940;2022-09-13T07:53:50;4.97;;;3.45;;
66087;SDS011;52872;52.994;6.940;2022-09-13T07:56:24;6.53;;;4.78;;
66087;SDS011;52872;52.994;6.940;2022-09-13T07:58:53;6.88;;;3.70;;
66087;SDS011;52872;52.994;6.940;2022-09-13T08:01:21;4.22;;;1.20;;
66087;SDS011;52872;52.994;6.940;2022-09-13T08:03:54;4.90;;;1.75;;
66087;SDS011;52872;52.994;6.940;2022-09-13T08:06:26;4.07;;;2.33;;
66087;SDS011;52872;52.994;6.940;2022-09-13T08:08:55;5.38;;;1.20;;
66087;SDS011;52872;52.994;6.940;2022-09-13T08:11:41;5.07;;;1.60;;
66087;SDS011;52872;52.994;6.940;2022-09-13T08:14:12;4.63;;;2.17;;
66087;SDS011;52872;52.994;6.940;2022-09-13T08:16:41;5.00;;;3.97;;
66087;SDS011;52872;52.994;6.940;2022-09-13T08:19:09;3.83;;;3.55;;
66087;SDS011;52872;52.994;6.940;2022-09-13T08:21:39;2.28;;;1.00;;
66087;SDS011;52872;52.994;6.940;2022-09-13T08:24:07;3.05;;;1.30;;
66087;SDS011;52872;52.994;6.940;2022-09-13T08:26:42;5.28;;;3.70;;
66087;SDS011;52872;52.994;6.940;2022-09-13T08:29:10;3.58;;;1.40;;
66087;SDS011;52872;52.994;6.940;2022-09-13T08:31:37;4.32;;;1.80;;
66087;SDS011;52872;52.994;6.940;2022-09-13T08:34:06;3.15;;;1.33;;
66087;SDS011;52872;52.994;6.940;2022-09-13T08:36:36;2.83;;;2.42;;
66087;SDS011;52872;52.994;6.940;2022-09-13T08:39:03;3.17;;;2.17;;
66087;SDS011;52872;52.994;6.940;2022-09-13T08:47:03;5.95;;;2.17;;
66087;SDS011;52872;52.994;6.940;2022-09-13T08:49:44;2.42;;;1.67;;
66087;SDS011;52872;52.994;6.940;2022-09-13T08:54:40;5.75;;;1.80;;
66087;SDS011;52872;52.994;6.940;2022-09-13T09:05:19;1.75;;;1.00;;
66087;SDS011;52872;52.994;6.940;2022-09-13T09:07:59;5.22;;;1.38;;
66087;SDS011;52872;52.994;6.940;2022-09-13T09:10:30;2.78;;;1.67;;
66087;SDS011;52872;52.994;6.940;2022-09-13T09:13:07;3.25;;;1.50;;
66087;SDS011;52872;52.994;6.940;2022-09-13T09:16:39;2.35;;;0.90;;
66087;SDS011;52872;52.994;6.940;2022-09-13T09:18:54;4.43;;;1.00;;
66087;SDS011;52872;52.994;6.940;2022-09-13T09:21:25;4.65;;;1.17;;
66087;SDS011;52872;52.994;6.940;2022-09-13T09:23:53;5.68;;;1.77;;
66087;SDS011;52872;52.994;6.940;2022-09-13T09:26:21;3.53;;;0.80;;
66087;SDS011;52872;52.994;6.940;2022-09-13T09:28:55;4.35;;;1.40;;
66087;SDS011;52872;52.994;6.940;2022-09-13T09:31:28;4.38;;;2.28;;
66087;SDS011;52872;52.994;6.940;2022-09-13T09:34:20;4.57;;;1.20;;
66087;SDS011;52872;52.994;6.940;2022-09-13T09:37:03;3.80;;;1.60;;
66087;SDS011;52872;52.994;6.940;2022-09-13T09:39:32;3.55;;;1.15;;
66087;SDS011;52872;52.994;6.940;2022-09-13T09:42:14;3.20;;;1.90;;
66087;SDS011;52872;52.994;6.940;2022-09-13T09:44:45;4.38;;;2.25;;
66087;SDS011;52872;52.994;6.940;2022-09-13T09:47:44;6.75;;;1.63;;
66087;SDS011;52872;52.994;6.940;2022-09-13T09:50:15;6.07;;;1.48;;
66087;SDS011;52872;52.994;6.940;2022-09-13T09:55:27;2.80;;;1.73;;
66087;SDS011;52872;52.994;6.940;2022-09-13T09:58:01;4.07;;;2.28;;
66087;SDS011;52872;52.994;6.940;2022-09-13T10:00:32;7.03;;;2.95;;
66087;SDS011;52872;52.994;6.940;2022-09-13T10:03:19;7.03;;;1.30;;
66087;SDS011;52872;52.994;6.940;2022-09-13T10:06:04;2.90;;;1.00;;
66087;SDS011;52872;52.994;6.940;2022-09-13T10:08:33;3.92;;;1.70;;
66087;SDS011;52872;52.994;6.940;2022-09-13T10:11:02;5.65;;;1.75;;
66087;SDS011;52872;52.994;6.940;2022-09-13T10:13:31;4.38;;;1.10;;
66087;SDS011;52872;52.994;6.940;2022-09-13T10:15:59;6.43;;;2.05;;
66087;SDS011;52872;52.994;6.940;2022-09-13T10:18:32;7.80;;;1.33;;
66087;SDS011;52872;52.994;6.940;2022-09-13T10:23:43;2.97;;;0.90;;
66087;SDS011;52872;52.994;6.940;2022-09-13T10:31:33;5.10;;;2.72;;
66087;SDS011;52872;52.994;6.940;2022-09-13T10:34:04;3.80;;;1.27;;
66087;SDS011;52872;52.994;6.940;2022-09-13T10:36:42;2.40;;;1.58;;
66087;SDS011;52872;52.994;6.940;2022-09-13T10:39:19;5.10;;;1.13;;
66087;SDS011;52872;52.994;6.940;2022-09-13T10:41:55;5.95;;;1.30;;
66087;SDS011;52872;52.994;6.940;2022-09-13T10:44:38;2.45;;;1.10;;
66087;SDS011;52872;52.994;6.940;2022-09-13T10:47:17;2.42;;;1.98;;
66087;SDS011;52872;52.994;6.940;2022-09-13T10:49:49;3.63;;;1.08;;
66087;SDS011;52872;52.994;6.940;2022-09-13T11:00:13;4.47;;;1.52;;
66087;SDS011;52872;52.994;6.940;2022-09-13T11:18:57;5.45;;;1.08;;
66087;SDS011;52872;52.994;6.940;2022-09-13T11:21:54;2.72;;;0.93;;
66087;SDS011;52872;52.994;6.940;2022-09-13T11:24:39;2.85;;;0.90;;
66087;SDS011;52872;52.994;6.940;2022-09-13T11:35:11;5.88;;;1.67;;
66087;SDS011;52872;52.994;6.940;2022-09-13T11:40:19;3.45;;;1.58;;
66087;SDS011;52872;52.994;6.940;2022-09-13T11:43:04;5.03;;;1.85;;
66087;SDS011;52872;52.994;6.940;2022-09-13T11:45:39;5.10;;;1.27;;
66087;SDS011;52872;52.994;6.940;2022-09-13T11:48:38;4.82;;;2.20;;
66087;SDS011;52872;52.994;6.940;2022-09-13T11:54:15;6.10;;;2.13;;
66087;SDS011;52872;52.994;6.940;2022-09-13T11:56:54;3.13;;;1.00;;
66087;SDS011;52872;52.994;6.940;2022-09-13T12:02:16;3.15;;;1.20;;
66087;SDS011;52872;52.994;6.940;2022-09-13T12:04:55;5.40;;;1.75;;
66087;SDS011;52872;52.994;6.940;2022-09-13T12:10:45;5.13;;;1.20;;
66087;SDS011;52872;52.994;6.940;2022-09-13T12:13:30;4.07;;;1.20;;
66087;SDS011;52872;52.994;6.940;2022-09-13T12:16:03;4.68;;;1.95;;
66087;SDS011;52872;52.994;6.940;2022-09-13T12:18:38;4.78;;;2.35;;
66087;SDS011;52872;52.994;6.940;2022-09-13T12:23:41;3.25;;;1.88;;
66087;SDS011;52872;52.994;6.940;2022-09-13T12:26:18;2.83;;;1.10;;
66087;SDS011;52872;52.994;6.940;2022-09-13T12:28:57;4.20;;;1.30;;
66087;SDS011;52872;52.994;6.940;2022-09-13T12:31:29;2.47;;;1.10;;
66087;SDS011;52872;52.994;6.940;2022-09-13T12:33:57;3.45;;;1.42;;
66087;SDS011;52872;52.994;6.940;2022-09-13T12:44:58;3.85;;;1.23;;
66087;SDS011;52872;52.994;6.940;2022-09-13T12:59:29;3.38;;;1.73;;
66087;SDS011;52872;52.994;6.940;2022-09-13T13:02:25;2.63;;;1.90;;
66087;SDS011;52872;52.994;6.940;2022-09-13T13:04:54;4.63;;;1.40;;
66087;SDS011;52872;52.994;6.940;2022-09-13T13:07:25;2.87;;;0.70;;
66087;SDS011;52872;52.994;6.940;2022-09-13T13:09:55;3.53;;;1.13;;
66087;SDS011;52872;52.994;6.940;2022-09-13T13:12:28;3.83;;;1.67;;
66087;SDS011;52872;52.994;6.940;2022-09-13T13:15:02;4.90;;;1.88;;
66087;SDS011;52872;52.994;6.940;2022-09-13T13:17:49;4.47;;;1.13;;
66087;SDS011;52872;52.994;6.940;2022-09-13T13:23:13;4.63;;;1.10;;
66087;SDS011;52872;52.994;6.940;2022-09-13T13:33:51;2.15;;;0.75;;
66087;SDS011;52872;52.994;6.940;2022-09-13T13:36:41;3.25;;;1.30;;
66087;SDS011;52872;52.994;6.940;2022-09-13T13:46:46;4.65;;;1.10;;
66087;SDS011;52872;52.994;6.940;2022-09-13T13:57:23;4.03;;;1.38;;
66087;SDS011;52872;52.994;6.940;2022-09-13T13:59:54;5.38;;;1.20;;
66087;SDS011;52872;52.994;6.940;2022-09-13T14:05:35;5.28;;;1.02;;
66087;SDS011;52872;52.994;6.940;2022-09-13T14:19:31;2.70;;;1.52;;
66087;SDS011;52872;52.994;6.940;2022-09-13T14:22:05;8.43;;;2.78;;
66087;SDS011;52872;52.994;6.940;2022-09-13T14:24:42;6.40;;;1.10;;
66087;SDS011;52872;52.994;6.940;2022-09-13T14:27:16;5.05;;;1.90;;
66087;SDS011;52872;52.994;6.940;2022-09-13T14:29:51;8.93;;;1.65;;
66087;SDS011;52872;52.994;6.940;2022-09-13T14:35:02;11.27;;;1.70;;
66087;SDS011;52872;52.994;6.940;2022-09-13T14:37:35;6.18;;;1.73;;
66087;SDS011;52872;52.994;6.940;2022-09-13T14:42:49;8.07;;;1.75;;
66087;SDS011;52872;52.994;6.940;2022-09-13T14:45:24;7.55;;;1.27;;
66087;SDS011;52872;52.994;6.940;2022-09-13T14:48:00;5.68;;;1.80;;
66087;SDS011;52872;52.994;6.940;2022-09-13T14:50:46;3.33;;;1.67;;
66087;SDS011;52872;52.994;6.940;2022-09-13T14:53:21;4.60;;;1.52;;
66087;SDS011;52872;52.994;6.940;2022-09-13T14:55:56;5.95;;;1.50;;
66087;SDS011;52872;52.994;6.940;2022-09-13T14:58:52;6.72;;;2.13;;
66087;SDS011;52872;52.994;6.940;2022-09-13T15:01:30;2.63;;;1.10;;
66087;SDS011;52872;52.994;6.940;2022-09-13T15:04:01;8.75;;;1.80;;
66087;SDS011;52872;52.994;6.940;2022-09-13T15:06:32;5.22;;;1.75;;
66087;SDS011;52872;52.994;6.940;2022-09-13T15:11:41;6.07;;;1.98;;
66087;SDS011;52872;52.994;6.940;2022-09-13T15:14:26;7.45;;;1.50;;
66087;SDS011;52872;52.994;6.940;2022-09-13T15:19:38;5.28;;;2.45;;
66087;SDS011;52872;52.994;6.940;2022-09-13T15:22:19;8.32;;;2.72;;
66087;SDS011;52872;52.994;6.940;2022-09-13T15:24:52;9.23;;;1.48;;
66087;SDS011;52872;52.994;6.940;2022-09-13T15:27:23;4.82;;;1.25;;
66087;SDS011;52872;52.994;6.940;2022-09-13T15:29:51;3.35;;;1.75;;
66087;SDS011;52872;52.994;6.940;2022-09-13T15:32:41;7.45;;;1.80;;
66087;SDS011;52872;52.994;6.940;2022-09-13T15:35:22;6.13;;;1.73;;
66087;SDS011;52872;52.994;6.940;2022-09-13T15:38:00;5.13;;;1.85;;
66087;SDS011;52872;52.994;6.940;2022-09-13T15:40:41;4.35;;;1.05;;
66087;SDS011;52872;52.994;6.940;2022-09-13T15:43:10;7.50;;;1.30;;
66087;SDS011;52872;52.994;6.940;2022-09-13T15:45:37;4.68;;;1.45;;
66087;SDS011;52872;52.994;6.940;2022-09-13T15:48:04;6.40;;;1.35;;
66087;SDS011;52872;52.994;6.940;2022-09-13T15:50:31;5.13;;;1.33;;
66087;SDS011;52872;52.994;6.940;2022-09-13T15:52:59;8.88;;;1.92;;
66087;SDS011;52872;52.994;6.940;2022-09-13T15:55:27;5.20;;;1.48;;
66087;SDS011;52872;52.994;6.940;2022-09-13T15:57:56;5.72;;;1.77;;
66087;SDS011;52872;52.994;6.940;2022-09-13T16:00:24;7.15;;;1.25;;
66087;SDS011;52872;52.994;6.940;2022-09-13T16:02:53;6.22;;;1.83;;
66087;SDS011;52872;52.994;6.940;2022-09-13T16:05:20;6.93;;;2.50;;
66087;SDS011;52872;52.994;6.940;2022-09-13T16:07:47;7.68;;;2.67;;
66087;SDS011;52872;52.994;6.940;2022-09-13T16:10:16;4.15;;;1.30;;
66087;SDS011;52872;52.994;6.940;2022-09-13T16:12:45;3.70;;;1.45;;
66087;SDS011;52872;52.994;6.940;2022-09-13T16:15:12;5.60;;;0.93;;
66087;SDS011;52872;52.994;6.940;2022-09-13T16:17:40;5.63;;;2.28;;
66087;SDS011;52872;52.994;6.940;2022-09-13T16:20:09;7.10;;;2.08;;
66087;SDS011;52872;52.994;6.940;2022-09-13T16:22:39;4.43;;;1.38;;
66087;SDS011;52872;52.994;6.940;2022-09-13T16:25:06;6.20;;;2.63;;
66087;SDS011;52872;52.994;6.940;2022-09-13T16:27:33;7.97;;;1.55;;
66087;SDS011;52872;52.994;6.940;2022-09-13T16:30:00;3.78;;;1.73;;
66087;SDS011;52872;52.994;6.940;2022-09-13T16:32:27;5.80;;;1.23;;
66087;SDS011;52872;52.994;6.940;2022-09-13T16:34:54;5.72;;;1.35;;
66087;SDS011;52872;52.994;6.940;2022-09-13T16:37:21;2.90;;;2.35;;
66087;SDS011;52872;52.994;6.940;2022-09-13T16:39:48;5.65;;;1.88;;
66087;SDS011;52872;52.994;6.940;2022-09-13T16:42:15;6.32;;;1.65;;
66087;SDS011;52872;52.994;6.940;2022-09-13T16:44:42;5.05;;;1.02;;
66087;SDS011;52872;52.994;6.940;2022-09-13T16:47:09;3.78;;;1.90;;
66087;SDS011;52872;52.994;6.940;2022-09-13T16:49:36;7.88;;;2.05;;
66087;SDS011;52872;52.994;6.940;2022-09-13T16:52:03;6.10;;;1.50;;
66087;SDS011;52872;52.994;6.940;2022-09-13T16:54:31;9.88;;;1.88;;
66087;SDS011;52872;52.994;6.940;2022-09-13T16:57:00;5.60;;;1.10;;
66087;SDS011;52872;52.994;6.940;2022-09-13T16:59:29;5.40;;;1.92;;
66087;SDS011;52872;52.994;6.940;2022-09-13T17:01:57;6.53;;;1.15;;
66087;SDS011;52872;52.994;6.940;2022-09-13T17:04:24;5.10;;;1.88;;
66087;SDS011;52872;52.994;6.940;2022-09-13T17:06:51;6.00;;;2.00;;
66087;SDS011;52872;52.994;6.940;2022-09-13T17:09:18;7.38;;;1.30;;
66087;SDS011;52872;52.994;6.940;2022-09-13T17:11:47;5.30;;;1.98;;
66087;SDS011;52872;52.994;6.940;2022-09-13T17:14:15;6.95;;;1.42;;
66087;SDS011;52872;52.994;6.940;2022-09-13T17:16:44;7.07;;;2.25;;
66087;SDS011;52872;52.994;6.940;2022-09-13T17:19:14;5.88;;;2.50;;
66087;SDS011;52872;52.994;6.940;2022-09-13T17:21:44;11.63;;;2.45;;
66087;SDS011;52872;52.994;6.940;2022-09-13T17:24:12;3.70;;;1.30;;
66087;SDS011;52872;52.994;6.940;2022-09-13T17:26:39;4.65;;;1.20;;
66087;SDS011;52872;52.994;6.940;2022-09-13T17:29:07;5.25;;;2.17;;
66087;SDS011;52872;52.994;6.940;2022-09-13T17:31:36;6.53;;;3.00;;
66087;SDS011;52872;52.994;6.940;2022-09-13T17:34:03;6.63;;;2.65;;
66087;SDS011;52872;52.994;6.940;2022-09-13T17:36:30;5.40;;;2.15;;
66087;SDS011;52872;52.994;6.940;2022-09-13T17:38:57;4.15;;;1.23;;
66087;SDS011;52872;52.994;6.940;2022-09-13T17:41:25;4.00;;;2.35;;
66087;SDS011;52872;52.994;6.940;2022-09-13T17:43:52;5.75;;;1.35;;
66087;SDS011;52872;52.994;6.940;2022-09-13T17:46:20;3.60;;;1.15;;
66087;SDS011;52872;52.994;6.940;2022-09-13T17:48:49;5.53;;;2.13;;
66087;SDS011;52872;52.994;6.940;2022-09-13T17:51:19;3.88;;;2.75;;
66087;SDS011;52872;52.994;6.940;2022-09-13T17:53:51;4.22;;;1.48;;
66087;SDS011;52872;52.994;6.940;2022-09-13T17:59:04;4.35;;;1.63;;
66087;SDS011;52872;52.994;6.940;2022-09-13T18:01:36;3.47;;;2.63;;
66087;SDS011;52872;52.994;6.940;2022-09-13T18:04:04;7.95;;;2.45;;
66087;SDS011;52872;52.994;6.940;2022-09-13T18:06:33;5.53;;;1.33;;
66087;SDS011;52872;52.994;6.940;2022-09-13T18:09:01;6.47;;;1.80;;
66087;SDS011;52872;52.994;6.940;2022-09-13T18:11:29;4.07;;;1.23;;
66087;SDS011;52872;52.994;6.940;2022-09-13T18:13:55;6.47;;;2.10;;
66087;SDS011;52872;52.994;6.940;2022-09-13T18:16:23;5.63;;;2.03;;
66087;SDS011;52872;52.994;6.940;2022-09-13T18:18:52;3.75;;;1.10;;
66087;SDS011;52872;52.994;6.940;2022-09-13T18:21:20;4.50;;;2.15;;
66087;SDS011;52872;52.994;6.940;2022-09-13T18:23:49;3.67;;;1.92;;
66087;SDS011;52872;52.994;6.940;2022-09-13T18:26:19;5.88;;;1.45;;
66087;SDS011;52872;52.994;6.940;2022-09-13T18:28:51;8.20;;;1.35;;
66087;SDS011;52872;52.994;6.940;2022-09-13T18:31:23;5.75;;;1.60;;
66087;SDS011;52872;52.994;6.940;2022-09-13T18:33:54;6.13;;;2.65;;
66087;SDS011;52872;52.994;6.940;2022-09-13T18:36:23;6.13;;;2.70;;